Alief, Texas
Current Conditions -  °F | °C
As of 7:33 AM on Monday 22 Dec 2014 (Local Time) from KSGR Reporting Station
Broken Clouds Broken Clouds  
Wind Chill: 61°   Ceiling: 1500
Heat Index: 61°   Visibility: 7mi
Dew Point: 60°   Wind: 9mph
Humidity: 97%   Direction: 190°S
Pressure: 29.75"   Gusts: NA
Location:  29.71°N, 95.6°W
Report Text: KSGR 221333Z AUTO 19008KT 7SM FEW009 BKN015 BKN024 16/16 A2975 RMK AO2 T01610156
Loading
Personal Weather Stations






























Interactive Weather Map New forecast layout! Learn more

10-Day Weather Forecast

Advertisements
Track Severe Weather on mobile